createdAt,value
2022-10-07T00:00:03.899Z,13.10
2022-10-07T00:02:38.717Z,13.10
2022-10-07T00:05:11.928Z,13.10
2022-10-07T00:07:45.287Z,13.10
2022-10-07T00:10:18.734Z,13.10
2022-10-07T00:12:51.957Z,13.10
2022-10-07T00:15:25.165Z,13.00
2022-10-07T00:17:59.682Z,13.00
2022-10-07T00:20:37.580Z,13.00
2022-10-07T00:23:10.664Z,13.00
2022-10-07T00:25:43.866Z,13.00
2022-10-07T00:28:17.130Z,13.00
2022-10-07T00:30:57.320Z,13.00
2022-10-07T00:33:33.425Z,13.00
2022-10-07T00:36:07.789Z,13.00
2022-10-07T00:38:58.662Z,13.00
2022-10-07T00:41:32.846Z,13.00
2022-10-07T00:44:24.734Z,13.00
2022-10-07T00:46:58.977Z,13.00
2022-10-07T00:49:38.003Z,13.00
2022-10-07T00:52:11.442Z,13.00
2022-10-07T00:54:45.205Z,13.00
2022-10-07T00:57:18.527Z,13.00
2022-10-07T00:59:52.194Z,13.00
2022-10-07T01:02:26.278Z,13.00
2022-10-07T01:05:01.380Z,13.00
2022-10-07T01:07:34.611Z,13.00
2022-10-07T01:10:11.721Z,12.90
2022-10-07T01:12:50.053Z,12.90
2022-10-07T01:15:27.684Z,12.80
2022-10-07T01:18:04.381Z,12.80
2022-10-07T01:20:45.291Z,12.80
2022-10-07T01:23:33.715Z,12.70
2022-10-07T01:26:16.481Z,12.70
2022-10-07T01:28:53.859Z,12.70
2022-10-07T01:31:29.154Z,12.70
2022-10-07T01:34:05.168Z,12.60
2022-10-07T01:36:39.393Z,12.60
2022-10-07T01:39:13.900Z,12.60
2022-10-07T01:41:47.440Z,12.60
2022-10-07T01:44:22.535Z,12.60
2022-10-07T01:46:56.451Z,12.50
2022-10-07T01:49:30.245Z,12.50
2022-10-07T01:52:19.239Z,12.50
2022-10-07T01:54:59.278Z,12.50
2022-10-07T01:57:38.168Z,12.50
2022-10-07T02:00:13.905Z,12.50
2022-10-07T02:03:03.499Z,12.50
2022-10-07T02:05:40.143Z,12.40
2022-10-07T02:08:18.871Z,12.40
2022-10-07T02:10:59.343Z,12.40
2022-10-07T02:13:37.313Z,12.40
2022-10-07T02:16:16.460Z,12.30
2022-10-07T02:18:51.126Z,12.30
2022-10-07T02:21:26.390Z,12.30
2022-10-07T02:24:01.442Z,12.20
2022-10-07T02:26:35.149Z,12.20
2022-10-07T02:29:10.452Z,12.10
2022-10-07T02:31:48.487Z,12.10
2022-10-07T02:34:23.012Z,12.00
2022-10-07T02:36:59.026Z,12.00
2022-10-07T02:39:34.569Z,11.90
2022-10-07T02:42:10.996Z,11.80
2022-10-07T02:44:48.939Z,11.70
2022-10-07T02:47:29.022Z,11.70
2022-10-07T02:50:03.352Z,11.60
2022-10-07T02:52:36.619Z,11.60
2022-10-07T02:55:11.761Z,11.60
2022-10-07T02:57:46.243Z,11.50
2022-10-07T03:00:20.980Z,11.60
2022-10-07T03:03:02.422Z,11.50
2022-10-07T03:05:49.362Z,11.50
2022-10-07T03:08:23.029Z,11.50
2022-10-07T03:10:57.285Z,11.50
2022-10-07T03:13:31.210Z,11.40
2022-10-07T03:16:07.754Z,11.50
2022-10-07T03:18:42.261Z,11.50
2022-10-07T03:21:22.221Z,11.50
2022-10-07T03:24:04.684Z,11.50
2022-10-07T03:26:42.817Z,11.50
2022-10-07T03:29:18.772Z,11.50
2022-10-07T03:31:55.391Z,11.50
2022-10-07T03:34:31.631Z,11.50
2022-10-07T03:37:04.762Z,11.50
2022-10-07T03:39:38.947Z,11.50
2022-10-07T03:42:12.132Z,11.50
2022-10-07T03:44:45.729Z,11.40
2022-10-07T03:47:21.747Z,11.40
2022-10-07T03:49:56.798Z,11.40
2022-10-07T03:52:30.601Z,11.40
2022-10-07T03:55:03.793Z,11.30
2022-10-07T03:57:58.464Z,11.30
2022-10-07T04:00:33.591Z,11.30
2022-10-07T04:03:08.072Z,11.20
2022-10-07T04:05:43.477Z,11.10
2022-10-07T04:08:17.433Z,11.10
2022-10-07T04:10:50.564Z,11.00
2022-10-07T04:13:24.062Z,10.90
2022-10-07T04:15:58.661Z,10.90
2022-10-07T04:18:32.789Z,10.70
2022-10-07T04:21:07.395Z,10.60
2022-10-07T04:23:42.491Z,10.60
2022-10-07T04:26:15.904Z,10.50
2022-10-07T04:28:52.724Z,10.50
2022-10-07T04:31:28.551Z,10.40
2022-10-07T04:34:10.021Z,10.40
2022-10-07T04:36:48.049Z,10.30
2022-10-07T04:39:37.441Z,10.30
2022-10-07T04:42:30.668Z,10.20
2022-10-07T04:45:04.256Z,10.20
2022-10-07T04:47:38.754Z,10.10
2022-10-07T04:50:12.346Z,10.00
2022-10-07T04:52:47.419Z,10.00
2022-10-07T04:55:20.505Z,10.00
2022-10-07T04:57:53.850Z,10.00
2022-10-07T05:00:27.214Z,10.00
2022-10-07T05:03:01.004Z,10.00
2022-10-07T05:05:35.055Z,10.00
2022-10-07T05:08:09.739Z,10.00
2022-10-07T05:10:43.749Z,10.10
2022-10-07T05:13:17.975Z,10.10
2022-10-07T05:15:53.762Z,10.10
2022-10-07T05:18:27.619Z,10.10
2022-10-07T05:21:05.266Z,10.20
2022-10-07T05:23:40.762Z,10.20
2022-10-07T05:26:18.081Z,10.20
2022-10-07T05:28:56.434Z,10.20
2022-10-07T05:31:35.935Z,10.20
2022-10-07T05:34:10.556Z,10.30
2022-10-07T05:36:43.880Z,10.30
2022-10-07T05:39:19.457Z,10.30
2022-10-07T05:42:06.088Z,10.40
2022-10-07T05:44:46.334Z,10.40
2022-10-07T05:47:20.319Z,10.40
2022-10-07T05:49:58.537Z,10.40
2022-10-07T05:52:32.381Z,10.50
2022-10-07T05:55:07.747Z,10.50
2022-10-07T05:57:41.388Z,10.60
2022-10-07T06:00:14.760Z,10.70
2022-10-07T06:02:52.948Z,10.70
2022-10-07T06:05:26.436Z,10.70
2022-10-07T06:07:59.754Z,10.80
2022-10-07T06:10:53.018Z,10.80
2022-10-07T06:13:26.549Z,10.90
2022-10-07T06:16:03.322Z,10.90
2022-10-07T06:18:36.983Z,10.90
2022-10-07T06:21:11.334Z,11.00
2022-10-07T06:23:44.759Z,11.00
2022-10-07T06:26:19.454Z,11.00
2022-10-07T06:28:53.531Z,11.10
2022-10-07T06:31:27.678Z,11.10
2022-10-07T06:34:05.890Z,11.20
2022-10-07T06:36:39.827Z,11.20
2022-10-07T06:39:12.997Z,11.20
2022-10-07T06:41:53.047Z,11.30
2022-10-07T06:44:44.584Z,11.40
2022-10-07T06:47:22.545Z,11.40
2022-10-07T06:49:56.154Z,11.50
2022-10-07T06:52:29.435Z,11.50
2022-10-07T06:55:03.207Z,11.60
2022-10-07T06:57:45.590Z,11.60
2022-10-07T07:00:20.618Z,11.70
2022-10-07T07:02:56.208Z,11.70
2022-10-07T07:05:31.685Z,11.80
2022-10-07T07:08:05.300Z,11.90
2022-10-07T07:10:38.533Z,11.90
2022-10-07T07:13:13.744Z,12.00
2022-10-07T07:15:55.130Z,12.00
2022-10-07T07:18:29.099Z,12.00
2022-10-07T07:21:03.358Z,12.00
2022-10-07T07:23:36.496Z,12.00
2022-10-07T07:26:09.790Z,12.00
2022-10-07T07:28:44.346Z,12.00
2022-10-07T07:31:17.726Z,12.10
2022-10-07T07:33:52.669Z,12.20
2022-10-07T07:36:26.991Z,12.20
2022-10-07T07:39:01.391Z,12.40
2022-10-07T07:41:36.602Z,12.50
2022-10-07T07:44:12.652Z,12.60
2022-10-07T07:46:49.294Z,12.80
2022-10-07T07:49:23.737Z,13.00
2022-10-07T07:51:57.943Z,13.20
2022-10-07T07:54:37.610Z,13.40
2022-10-07T07:57:10.797Z,13.70
2022-10-07T07:59:45.857Z,13.90
2022-10-07T08:02:21.846Z,14.10
2022-10-07T08:04:56.096Z,14.30
2022-10-07T08:07:30.370Z,14.50
2022-10-07T08:10:03.650Z,14.70
2022-10-07T08:12:37.568Z,14.90
2022-10-07T08:15:12.283Z,15.20
2022-10-07T08:17:45.798Z,15.40
2022-10-07T08:20:19.338Z,15.60
2022-10-07T08:22:58.199Z,15.90
2022-10-07T08:25:32.959Z,16.10
2022-10-07T08:28:09.016Z,16.40
2022-10-07T08:30:46.397Z,16.60
2022-10-07T08:33:19.910Z,16.90
2022-10-07T08:35:53.560Z,17.20
2022-10-07T08:38:26.662Z,17.30
2022-10-07T08:41:02.442Z,17.40
2022-10-07T08:43:36.152Z,17.70
2022-10-07T08:46:13.546Z,17.90
2022-10-07T08:48:50.142Z,18.20
2022-10-07T08:51:25.432Z,18.60
2022-10-07T08:54:00.106Z,18.80
2022-10-07T08:56:33.998Z,19.10
2022-10-07T08:59:13.325Z,19.40
2022-10-07T09:01:52.180Z,19.70
2022-10-07T09:04:31.377Z,19.90
2022-10-07T09:07:06.888Z,20.00
2022-10-07T09:09:42.285Z,20.20
2022-10-07T09:12:19.253Z,20.40
2022-10-07T09:14:55.411Z,20.70
2022-10-07T09:17:35.147Z,20.90
2022-10-07T09:20:16.521Z,21.10
2022-10-07T09:22:53.566Z,21.30
2022-10-07T09:25:27.827Z,21.40
2022-10-07T09:28:00.930Z,21.70
2022-10-07T09:30:34.086Z,22.00
2022-10-07T09:33:12.385Z,22.30
2022-10-07T09:35:48.211Z,22.60
2022-10-07T09:38:31.166Z,22.80
2022-10-07T09:41:17.439Z,22.90
2022-10-07T09:44:05.428Z,23.00
2022-10-07T09:46:47.291Z,22.80
2022-10-07T09:49:36.996Z,22.90
2022-10-07T09:52:16.858Z,23.10
2022-10-07T09:54:51.883Z,23.30
2022-10-07T09:57:26.619Z,23.50
2022-10-07T10:00:32.919Z,23.50
2022-10-07T10:03:07.736Z,23.80
2022-10-07T10:05:53.984Z,23.90
2022-10-07T10:08:28.500Z,24.10
2022-10-07T10:11:02.731Z,24.10
2022-10-07T10:13:36.702Z,24.00
2022-10-07T10:16:29.003Z,24.30
2022-10-07T10:19:02.873Z,24.30
2022-10-07T10:21:40.836Z,24.50
2022-10-07T10:24:15.765Z,24.70
2022-10-07T10:26:56.096Z,25.00
2022-10-07T10:29:41.700Z,25.00
2022-10-07T10:32:31.179Z,24.80
2022-10-07T10:35:07.558Z,24.80
2022-10-07T10:38:05.788Z,25.00
2022-10-07T10:40:41.231Z,25.20
2022-10-07T10:43:19.001Z,25.30
2022-10-07T10:46:13.741Z,25.30
2022-10-07T10:48:53.746Z,25.30
2022-10-07T10:51:35.849Z,25.40
2022-10-07T10:54:23.283Z,25.20
2022-10-07T10:56:59.389Z,25.40
2022-10-07T10:59:42.709Z,25.50
2022-10-07T11:02:23.835Z,25.60
2022-10-07T11:04:59.521Z,25.80
2022-10-07T11:07:33.910Z,25.90
2022-10-07T11:10:18.868Z,26.00
2022-10-07T11:12:54.817Z,25.90
2022-10-07T11:15:29.435Z,25.90
2022-10-07T11:18:05.796Z,25.90
2022-10-07T11:20:44.535Z,25.90
2022-10-07T11:23:22.465Z,25.80
2022-10-07T11:25:58.671Z,25.80
2022-10-07T11:28:34.921Z,26.00
2022-10-07T11:31:11.202Z,26.10
2022-10-07T11:33:47.593Z,26.30
2022-10-07T11:36:23.150Z,26.40
2022-10-07T11:38:56.438Z,26.40
2022-10-07T11:41:32.722Z,26.40
2022-10-07T11:44:08.607Z,26.50
2022-10-07T11:46:42.185Z,26.60
2022-10-07T11:49:18.177Z,26.70
2022-10-07T11:51:55.166Z,26.50
2022-10-07T11:54:30.162Z,26.40
2022-10-07T11:57:04.725Z,26.30
2022-10-07T11:59:42.169Z,26.30
2022-10-07T12:02:38.079Z,26.10
2022-10-07T12:05:26.279Z,25.90
2022-10-07T12:08:01.020Z,26.00
2022-10-07T12:10:34.694Z,26.00
2022-10-07T12:13:26.989Z,26.20
2022-10-07T12:16:21.622Z,26.30
2022-10-07T12:19:10.886Z,26.30
2022-10-07T12:22:05.606Z,26.30
2022-10-07T12:24:40.676Z,26.30
2022-10-07T12:27:15.529Z,26.10
2022-10-07T12:29:50.879Z,26.00
2022-10-07T12:32:42.739Z,25.90
2022-10-07T12:35:35.117Z,25.90
2022-10-07T12:38:14.367Z,25.90
2022-10-07T12:40:49.977Z,25.80
2022-10-07T12:43:26.513Z,25.80
2022-10-07T12:45:59.818Z,25.90
2022-10-07T12:48:37.892Z,25.80
2022-10-07T12:51:16.946Z,25.90
2022-10-07T12:53:52.214Z,25.70
2022-10-07T12:56:26.708Z,25.70
2022-10-07T12:59:35.604Z,25.80
2022-10-07T13:02:35.046Z,25.60
2022-10-07T13:05:24.920Z,25.70
2022-10-07T13:08:08.417Z,25.70
2022-10-07T13:10:49.409Z,25.70
2022-10-07T13:13:25.933Z,25.60
2022-10-07T13:16:00.424Z,25.60
2022-10-07T13:18:40.801Z,25.50
2022-10-07T13:21:18.979Z,25.30
2022-10-07T13:23:54.306Z,25.10
2022-10-07T13:26:27.670Z,25.10
2022-10-07T13:29:02.111Z,25.00
2022-10-07T13:31:36.008Z,25.00
2022-10-07T13:34:18.067Z,24.80
2022-10-07T13:36:51.252Z,24.70
2022-10-07T13:39:26.120Z,24.60
2022-10-07T13:41:59.960Z,24.50
2022-10-07T13:44:33.201Z,24.40
2022-10-07T13:47:11.946Z,24.20
2022-10-07T13:49:47.175Z,24.10
2022-10-07T13:52:21.569Z,24.00
2022-10-07T13:54:56.127Z,23.90
2022-10-07T13:57:31.185Z,23.80
2022-10-07T14:00:04.865Z,23.70
2022-10-07T14:02:46.126Z,23.50
2022-10-07T14:05:20.428Z,23.40
2022-10-07T14:07:54.754Z,23.20
2022-10-07T14:10:30.286Z,23.20
2022-10-07T14:13:07.385Z,23.00
2022-10-07T14:15:43.810Z,23.00
2022-10-07T14:18:17.966Z,22.90
2022-10-07T14:20:51.793Z,22.80
2022-10-07T14:23:31.269Z,22.70
2022-10-07T14:26:06.876Z,22.60
2022-10-07T14:28:40.502Z,22.40
2022-10-07T14:31:37.018Z,22.30
2022-10-07T14:34:32.922Z,22.20
2022-10-07T14:37:08.181Z,22.10
2022-10-07T14:39:42.539Z,22.00
2022-10-07T14:42:19.121Z,21.80
2022-10-07T14:44:52.574Z,21.60
2022-10-07T14:47:28.165Z,21.50
2022-10-07T14:50:01.436Z,21.40
2022-10-07T14:52:39.639Z,21.20
2022-10-07T14:55:17.252Z,21.10
2022-10-07T14:57:51.777Z,21.00
2022-10-07T15:00:25.892Z,20.90
2022-10-07T15:02:59.004Z,20.80
2022-10-07T15:05:33.933Z,20.60
2022-10-07T15:08:07.056Z,20.50
2022-10-07T15:10:44.142Z,20.50
2022-10-07T15:13:18.633Z,20.40
2022-10-07T15:15:51.860Z,20.30
2022-10-07T15:18:25.011Z,20.20
2022-10-07T15:20:58.277Z,20.10
2022-10-07T15:23:31.437Z,20.00
2022-10-07T15:26:04.750Z,19.90
2022-10-07T15:28:39.405Z,19.80
2022-10-07T15:31:12.624Z,19.70
2022-10-07T15:33:45.761Z,19.60
2022-10-07T15:36:18.925Z,19.50
2022-10-07T15:38:52.008Z,19.50
2022-10-07T15:41:32.625Z,19.30
2022-10-07T15:44:08.178Z,19.20
2022-10-07T15:46:41.882Z,19.10
2022-10-07T15:49:16.989Z,19.00
2022-10-07T15:51:50.187Z,18.80
2022-10-07T15:54:23.508Z,18.70
2022-10-07T15:56:56.601Z,18.60
2022-10-07T15:59:31.105Z,18.50
2022-10-07T16:02:06.073Z,18.30
2022-10-07T16:04:39.681Z,18.10
2022-10-07T16:07:12.770Z,18.00
2022-10-07T16:09:45.871Z,17.90
2022-10-07T16:12:18.932Z,17.80
2022-10-07T16:14:53.416Z,17.60
2022-10-07T16:17:27.693Z,17.50
2022-10-07T16:20:00.804Z,17.40
2022-10-07T16:22:33.881Z,17.30
2022-10-07T16:25:07.305Z,17.10
2022-10-07T16:27:57.846Z,17.00
2022-10-07T16:30:44.245Z,16.90
2022-10-07T16:33:18.678Z,16.70
2022-10-07T16:35:51.761Z,16.60
2022-10-07T16:38:24.997Z,16.40
2022-10-07T16:40:58.104Z,16.30
2022-10-07T16:43:31.324Z,16.20
2022-10-07T16:46:06.365Z,16.10
2022-10-07T16:48:40.174Z,15.90
2022-10-07T16:51:14.114Z,15.80
2022-10-07T16:53:48.964Z,15.70
2022-10-07T16:56:22.417Z,15.60
2022-10-07T16:58:57.349Z,15.50
2022-10-07T17:01:32.426Z,15.30
2022-10-07T17:04:05.950Z,15.20
2022-10-07T17:06:39.036Z,15.10
2022-10-07T17:09:12.167Z,15.00
2022-10-07T17:11:45.281Z,14.90
2022-10-07T17:14:19.829Z,14.80
2022-10-07T17:16:56.532Z,14.70
2022-10-07T17:19:29.813Z,14.60
2022-10-07T17:22:04.075Z,14.50
2022-10-07T17:24:37.218Z,14.40
2022-10-07T17:27:10.360Z,14.30
2022-10-07T17:29:43.495Z,14.20
2022-10-07T17:32:17.951Z,14.10
2022-10-07T17:34:51.044Z,14.00
2022-10-07T17:37:24.153Z,13.90
2022-10-07T17:39:57.235Z,13.90
2022-10-07T17:42:30.300Z,13.80
2022-10-07T17:45:04.729Z,13.70
2022-10-07T17:47:39.196Z,13.70
2022-10-07T17:50:13.201Z,13.60
2022-10-07T17:52:46.261Z,13.50
2022-10-07T17:55:19.431Z,13.40
2022-10-07T17:57:53.071Z,13.30
2022-10-07T18:00:26.205Z,13.20
2022-10-07T18:03:01.112Z,13.20
2022-10-07T18:05:34.184Z,13.10
2022-10-07T18:08:07.379Z,13.00
2022-10-07T18:10:40.450Z,12.90
2022-10-07T18:13:31.064Z,12.90
2022-10-07T18:16:05.015Z,12.80
2022-10-07T18:18:40.076Z,12.70
2022-10-07T18:21:13.213Z,12.70
2022-10-07T18:23:46.336Z,12.60
2022-10-07T18:26:19.755Z,12.50
2022-10-07T18:28:52.907Z,12.50
2022-10-07T18:31:27.006Z,12.40
2022-10-07T18:34:01.581Z,12.40
2022-10-07T18:36:35.687Z,12.30
2022-10-07T18:39:10.502Z,12.20
2022-10-07T18:41:44.434Z,12.20
2022-10-07T18:44:17.549Z,12.10
2022-10-07T18:46:50.663Z,12.10
2022-10-07T18:49:25.520Z,12.00
2022-10-07T18:51:58.640Z,11.90
2022-10-07T18:54:31.784Z,11.90
2022-10-07T18:57:04.967Z,11.80
2022-10-07T18:59:38.098Z,11.80
2022-10-07T19:02:12.446Z,11.70
2022-10-07T19:04:46.967Z,11.70
2022-10-07T19:07:20.074Z,11.60
2022-10-07T19:09:53.160Z,11.60
2022-10-07T19:12:43.646Z,11.50
2022-10-07T19:15:16.770Z,11.50
2022-10-07T19:17:50.640Z,11.40
2022-10-07T19:20:25.542Z,11.40
2022-10-07T19:22:58.626Z,11.30
2022-10-07T19:25:50.949Z,11.30
2022-10-07T19:28:24.685Z,11.20
2022-10-07T19:30:59.570Z,11.20
2022-10-07T19:33:34.273Z,11.10
2022-10-07T19:36:08.980Z,11.10
2022-10-07T19:38:44.281Z,11.00
2022-10-07T19:41:20.725Z,11.00
2022-10-07T19:43:54.210Z,11.00
2022-10-07T19:46:29.176Z,10.90
2022-10-07T19:49:02.938Z,10.90
2022-10-07T19:51:38.929Z,10.80
2022-10-07T19:54:13.169Z,10.80
2022-10-07T19:56:46.555Z,10.70
2022-10-07T19:59:19.703Z,10.70
2022-10-07T20:01:56.620Z,10.70
2022-10-07T20:04:32.150Z,10.70
2022-10-07T20:07:06.670Z,10.60
2022-10-07T20:09:39.795Z,10.60
2022-10-07T20:12:14.040Z,10.50
2022-10-07T20:14:47.147Z,10.50
2022-10-07T20:17:20.229Z,10.50
2022-10-07T20:19:56.730Z,10.40
2022-10-07T20:22:31.903Z,10.40
2022-10-07T20:25:06.266Z,10.40
2022-10-07T20:27:39.341Z,10.30
2022-10-07T20:30:17.801Z,10.30
2022-10-07T20:32:51.255Z,10.30
2022-10-07T20:35:25.048Z,10.20
2022-10-07T20:37:59.551Z,10.20
2022-10-07T20:40:50.138Z,10.20
2022-10-07T20:43:23.281Z,10.10
2022-10-07T20:45:59.437Z,10.10
2022-10-07T20:48:33.816Z,10.00
2022-10-07T20:51:08.425Z,10.00
2022-10-07T20:53:48.033Z,9.90
2022-10-07T20:56:21.178Z,9.90
2022-10-07T20:58:54.339Z,9.80
2022-10-07T21:01:28.158Z,9.80
2022-10-07T21:04:01.260Z,9.80
2022-10-07T21:06:34.370Z,9.80
2022-10-07T21:09:08.866Z,9.70
2022-10-07T21:11:41.985Z,9.70
2022-10-07T21:14:15.396Z,9.70
2022-10-07T21:16:48.933Z,9.60
2022-10-07T21:19:22.226Z,9.60
2022-10-07T21:21:55.457Z,9.60
2022-10-07T21:24:29.913Z,9.50
2022-10-07T21:27:03.738Z,9.50
2022-10-07T21:29:40.945Z,9.50
2022-10-07T21:32:14.228Z,9.40
2022-10-07T21:34:47.295Z,9.40
2022-10-07T21:37:20.366Z,9.40
2022-10-07T21:39:54.955Z,9.30
2022-10-07T21:42:28.764Z,9.30
2022-10-07T21:45:01.957Z,9.30
2022-10-07T21:47:35.050Z,9.20
2022-10-07T21:50:09.169Z,9.20
2022-10-07T21:52:44.539Z,9.10
2022-10-07T21:55:19.419Z,9.10
2022-10-07T21:57:52.495Z,9.10
2022-10-07T22:00:26.885Z,9.10
2022-10-07T22:03:00.303Z,9.00
2022-10-07T22:05:34.170Z,9.00
2022-10-07T22:08:24.640Z,9.00
2022-10-07T22:11:01.715Z,8.90
2022-10-07T22:13:35.842Z,8.90
2022-10-07T22:16:12.373Z,8.90
2022-10-07T22:18:46.510Z,8.90
2022-10-07T22:21:20.584Z,8.80
2022-10-07T22:23:54.694Z,8.80
2022-10-07T22:26:29.872Z,8.70
2022-10-07T22:29:02.947Z,8.70
2022-10-07T22:31:36.292Z,8.70
2022-10-07T22:34:29.356Z,8.60
2022-10-07T22:37:01.892Z,8.60
2022-10-07T22:39:35.202Z,8.60
2022-10-07T22:42:09.684Z,8.60
2022-10-07T22:44:42.838Z,8.60
2022-10-07T22:47:16.417Z,8.60
2022-10-07T22:49:49.670Z,8.50
2022-10-07T22:52:23.241Z,8.50
2022-10-07T22:54:56.418Z,8.50
2022-10-07T22:57:30.954Z,8.50
2022-10-07T23:00:04.609Z,8.50
2022-10-07T23:02:37.898Z,8.50
2022-10-07T23:05:11.784Z,8.50
2022-10-07T23:07:44.897Z,8.50
2022-10-07T23:10:18.092Z,8.50
2022-10-07T23:12:52.589Z,8.50
2022-10-07T23:15:25.899Z,8.40
2022-10-07T23:17:58.996Z,8.40
2022-10-07T23:20:32.105Z,8.40
2022-10-07T23:23:06.419Z,8.40
2022-10-07T23:25:42.845Z,8.40
2022-10-07T23:28:17.668Z,8.30
2022-10-07T23:30:50.833Z,8.30
2022-10-07T23:33:24.545Z,8.30
2022-10-07T23:35:58.396Z,8.30
2022-10-07T23:38:31.523Z,8.30
2022-10-07T23:41:04.624Z,8.30
2022-10-07T23:43:39.255Z,8.30
2022-10-07T23:46:14.176Z,8.30
2022-10-07T23:48:47.440Z,8.20
2022-10-07T23:51:21.826Z,8.20
2022-10-07T23:53:56.590Z,8.20
2022-10-07T23:56:29.711Z,8.20
2022-10-07T23:59:04.443Z,8.20
